Chatfield, Texas
Current Conditions -  °F | °C
As of 9:53 PM on Thursday 18 Dec 2014 (Local Time) from KCRS Reporting Station
Haze Haze  
Wind Chill: 47°   Ceiling: 600
Heat Index: 49°   Visibility: 5mi
Dew Point: 46°   Wind: 6mph
Humidity: 90%   Direction: 30°NNE
Pressure: 30.16"   Gusts: NA
Location:  32.24°N, 96.41°W
Report Text: KCRS 190353Z AUTO 03005KT 5SM BR OVC006 09/08 A3016 RMK AO2 SLP214 T00940078
Loading
Personal Weather Stations






























Interactive Weather Map New forecast layout! Learn more

10-Day Weather Forecast

Advertisements
Track Severe Weather on mobile